createdAt,value
2022-08-20T00:05:52.069Z,79.60
2022-08-20T00:16:01.007Z,80.90
2022-08-20T00:26:06.897Z,82.10
2022-08-20T00:36:12.236Z,84.30
2022-08-20T00:46:22.394Z,85.90
2022-08-20T00:56:36.266Z,87.60
2022-08-20T01:06:42.586Z,90.30
2022-08-20T01:16:49.227Z,90.80
2022-08-20T01:26:55.413Z,91.40
2022-08-20T01:36:59.811Z,91.40
2022-08-20T01:47:16.006Z,91.20
2022-08-20T01:57:22.701Z,91.20
2022-08-20T02:07:28.266Z,91.40
2022-08-20T02:17:32.126Z,92.00
2022-08-20T02:27:38.269Z,92.50
2022-08-20T02:37:43.937Z,92.60
2022-08-20T02:47:49.518Z,92.10
2022-08-20T02:57:55.210Z,92.50
2022-08-20T03:08:04.855Z,92.50
2022-08-20T03:18:08.922Z,92.50
2022-08-20T03:28:14.643Z,92.50
2022-08-20T03:38:21.487Z,92.40
2022-08-20T03:48:38.447Z,92.20
2022-08-20T03:58:42.126Z,91.80
2022-08-20T04:08:47.243Z,92.90
2022-08-20T04:18:56.038Z,93.90
2022-08-20T04:29:07.349Z,94.30
2022-08-20T04:39:11.135Z,94.30
2022-08-20T04:49:16.443Z,94.40
2022-08-20T04:59:20.147Z,94.30
2022-08-20T05:09:25.295Z,95.20
2022-08-20T05:19:29.836Z,95.10
2022-08-20T05:29:34.923Z,94.10
2022-08-20T05:39:38.824Z,93.50
2022-08-20T05:49:46.309Z,95.30
2022-08-20T05:59:50.218Z,95.90
2022-08-20T06:09:55.267Z,95.60
2022-08-20T06:19:59.044Z,95.20
2022-08-20T06:30:06.532Z,94.70
2022-08-20T06:40:14.556Z,94.20
2022-08-20T06:50:22.966Z,93.80
2022-08-20T07:00:28.737Z,93.20
2022-08-20T07:10:35.519Z,93.10
2022-08-20T07:20:40.478Z,92.30
2022-08-20T07:31:04.236Z,91.80
2022-08-20T07:41:17.478Z,91.70
2022-08-20T07:51:24.148Z,93.00
2022-08-20T08:01:41.575Z,92.20
2022-08-20T08:12:02.859Z,91.70
2022-08-20T08:22:11.452Z,91.20
2022-08-20T08:32:16.571Z,91.80
2022-08-20T08:42:30.182Z,91.10
2022-08-20T08:52:42.918Z,90.40
2022-08-20T09:02:59.437Z,90.10
2022-08-20T09:13:04.808Z,87.10
2022-08-20T09:23:08.589Z,83.50
2022-08-20T09:33:13.761Z,83.10
2022-08-20T09:43:17.497Z,82.20
2022-08-20T09:53:23.281Z,82.30
2022-08-20T10:03:27.062Z,82.30
2022-08-20T10:13:32.185Z,81.00
2022-08-20T10:23:35.871Z,82.60
2022-08-20T10:33:42.364Z,83.60
2022-08-20T10:43:48.826Z,83.60
2022-08-20T10:53:53.936Z,82.20
2022-08-20T11:03:57.626Z,83.20
2022-08-20T11:14:02.718Z,83.10
2022-08-20T11:24:07.026Z,84.30
2022-08-20T11:34:12.842Z,84.00
2022-08-20T11:44:21.251Z,81.60
2022-08-20T11:54:28.831Z,79.30
2022-08-20T12:04:33.814Z,79.10
2022-08-20T12:14:40.514Z,79.70
2022-08-20T12:24:44.586Z,78.10
2022-08-20T12:34:51.430Z,76.70
2022-08-20T12:44:55.239Z,74.20
2022-08-20T12:55:01.195Z,70.30
2022-08-20T13:05:06.110Z,70.80
2022-08-20T13:15:13.138Z,68.70
2022-08-20T13:25:19.753Z,69.50
2022-08-20T13:35:25.577Z,69.50
2022-08-20T13:45:29.350Z,69.00
2022-08-20T13:55:34.691Z,66.60
2022-08-20T14:05:42.776Z,61.10
2022-08-20T14:15:51.242Z,59.30
2022-08-20T14:25:55.085Z,58.70
2022-08-20T14:36:00.317Z,58.10
2022-08-20T14:46:04.246Z,58.80
2022-08-20T14:56:09.715Z,58.70
2022-08-20T15:06:22.308Z,55.80
2022-08-20T15:16:28.218Z,55.90
2022-08-20T15:26:32.136Z,54.70
2022-08-20T15:36:37.265Z,55.40
2022-08-20T15:46:45.505Z,54.70
2022-08-20T15:57:01.327Z,53.60
2022-08-20T16:07:15.929Z,52.70
2022-08-20T16:17:32.062Z,51.60
2022-08-20T16:27:44.236Z,50.10
2022-08-20T16:38:01.123Z,49.30
2022-08-20T16:48:08.267Z,48.60
2022-08-20T16:58:13.363Z,47.20
2022-08-20T17:08:22.189Z,45.80
2022-08-20T17:18:33.886Z,45.60
2022-08-20T17:28:40.367Z,43.80
2022-08-20T17:38:51.630Z,43.60
2022-08-20T17:48:58.472Z,42.20
2022-08-20T17:59:10.866Z,38.70
2022-08-20T18:09:24.591Z,39.60
2022-08-20T18:20:00.605Z,43.80
2022-08-20T18:30:05.593Z,46.80
2022-08-20T18:40:27.736Z,49.20
2022-08-20T18:50:53.141Z,51.20
2022-08-20T19:01:01.697Z,53.20
2022-08-20T19:11:27.124Z,55.70
2022-08-20T19:21:36.347Z,58.00
2022-08-20T19:31:41.164Z,59.80
2022-08-20T19:41:51.361Z,61.10
2022-08-20T19:52:11.641Z,62.00
2022-08-20T20:02:21.809Z,63.20
2022-08-20T20:12:26.442Z,64.70
2022-08-20T20:22:35.560Z,65.90
2022-08-20T20:32:48.833Z,67.10
2022-08-20T20:43:05.701Z,68.30
2022-08-20T20:53:09.703Z,68.50
2022-08-20T21:03:15.162Z,68.90
2022-08-20T21:13:18.909Z,69.70
2022-08-20T21:23:40.214Z,70.20
2022-08-20T21:33:48.009Z,71.40
2022-08-20T21:43:53.294Z,72.00
2022-08-20T21:53:57.105Z,72.80
2022-08-20T22:04:02.591Z,73.20
2022-08-20T22:14:09.797Z,73.40
2022-08-20T22:24:15.285Z,73.70
2022-08-20T22:34:21.660Z,74.10
2022-08-20T22:44:28.280Z,75.00
2022-08-20T22:54:32.063Z,76.00
2022-08-20T23:04:38.035Z,77.30
2022-08-20T23:14:42.134Z,78.00
2022-08-20T23:24:47.377Z,80.20
2022-08-20T23:34:51.139Z,80.70
2022-08-20T23:44:56.254Z,81.40
2022-08-20T23:54:59.997Z,82.40
